Time;durP1;ratioP1;P1;durP2;ratioP2;P2;SDS_P1;SDS_P2;PMS_P1;PMS_P2;Temp;Humidity;BMP_temperature;BMP_pressure;BME280_temperature;BME280_humidity;BME280_pressure;Samples;Min_cycle;Max_cycle;Signal;HPM_P1;HPM_P2
2022/08/27 00:00:49;;;;;;;10.57;8.50;;;22.60;99.90;;;;;;4588249;19;20014;-26
2022/08/27 00:02:21;;;;;;;;;;;22.60;99.90;;;;;;4589183;19;20047;-28
2022/08/27 00:03:52;;;;;;;;;;;22.60;99.90;;;;;;4589609;19;20348;-28
2022/08/27 00:05:24;;;;;;;;;;;22.60;99.90;;;;;;4589270;19;19929;-28
2022/08/27 00:06:56;;;;;;;;;;;22.60;99.90;;;;;;4589655;19;19911;-27
2022/08/27 00:08:28;;;;;;;;;;;22.60;99.90;;;;;;4590308;19;19919;-26
2022/08/27 00:09:59;;;;;;;;;;;22.50;99.90;;;;;;4590290;19;19918;-25
2022/08/27 00:11:31;;;;;;;;;;;22.60;99.90;;;;;;4590568;19;19926;-28
2022/08/27 00:13:02;;;;;;;;;;;22.60;99.90;;;;;;4590210;19;19951;-25
2022/08/27 00:14:34;;;;;;;;;;;22.60;99.90;;;;;;4590055;19;19945;-26
2022/08/27 00:16:06;;;;;;;;;;;22.60;99.90;;;;;;4589349;19;19922;-24
2022/08/27 00:17:38;;;;;;;;;;;22.60;99.90;;;;;;4588328;19;19922;-29
2022/08/27 00:19:09;;;;;;;;;;;22.60;99.90;;;;;;4589485;19;19922;-25
2022/08/27 00:20:42;;;;;;;;;;;22.60;99.90;;;;;;4588998;19;19919;-25
2022/08/27 00:22:13;;;;;;;;;;;22.60;99.90;;;;;;4587488;19;19994;-29
2022/08/27 00:23:45;;;;;;;;;;;22.60;99.90;;;;;;4589972;19;19929;-25
2022/08/27 00:25:17;;;;;;;;;;;22.60;99.90;;;;;;4590044;19;20336;-24
2022/08/27 00:26:49;;;;;;;;;;;22.60;99.90;;;;;;4590171;19;20280;-31
2022/08/27 00:28:20;;;;;;;;;;;22.60;99.90;;;;;;4589772;19;19918;-24
2022/08/27 00:29:52;;;;;;;;;;;22.50;99.90;;;;;;4590094;19;19914;-26
2022/08/27 00:31:24;;;;;;;;;;;22.50;99.90;;;;;;4588714;19;19936;-24
2022/08/27 00:32:55;;;;;;;;;;;22.50;99.90;;;;;;4589448;19;20275;-25
2022/08/27 00:34:27;;;;;;;;;;;22.50;99.90;;;;;;4589194;19;19994;-25
2022/08/27 00:36:01;;;;;;;;;;;22.50;99.90;;;;;;4589227;19;19947;-25
2022/08/27 00:37:33;;;;;;;;;;;22.50;99.90;;;;;;4590003;19;20304;-27
2022/08/27 00:39:05;;;;;;;;;;;22.60;99.90;;;;;;4588504;19;19919;-26
2022/08/27 00:40:36;;;;;;;;;;;22.50;99.90;;;;;;4589813;19;19911;-25
2022/08/27 00:42:08;;;;;;;;;;;22.50;99.90;;;;;;4588241;19;19996;-25
2022/08/27 00:43:44;;;;;;;;;;;22.50;99.90;;;;;;4589021;19;20337;-23
2022/08/27 00:45:19;;;;;;;;;;;22.50;99.90;;;;;;4589519;19;19941;-25
2022/08/27 00:46:54;;;;;;;;;;;22.50;99.90;;;;;;4589856;19;20280;-28
2022/08/27 00:48:27;;;;;;;;;;;22.50;99.90;;;;;;4588588;19;19918;-24
2022/08/27 00:50:03;;;;;;;;;;;22.50;99.90;;;;;;4589583;19;19915;-25
2022/08/27 00:51:35;;;;;;;;;;;22.50;99.90;;;;;;4589631;19;19970;-32
2022/08/27 00:53:11;;;;;;;;;;;22.50;99.90;;;;;;4588687;19;19911;-25
2022/08/27 00:54:43;;;;;;;;;;;22.50;99.90;;;;;;4589298;19;20270;-25
2022/08/27 00:56:16;;;;;;;;;;;22.50;99.90;;;;;;4589445;19;19923;-26
2022/08/27 00:57:50;;;;;;;;;;;22.50;99.90;;;;;;4589181;19;19918;-30
2022/08/27 00:59:21;;;;;;;;;;;22.50;99.90;;;;;;4588646;19;20288;-25
2022/08/27 01:00:53;;;;;;;;;;;22.50;99.90;;;;;;4593023;19;20284;-25
2022/08/27 01:02:29;;;;;;;;;;;22.50;99.90;;;;;;4593671;19;19970;-29
2022/08/27 01:04:02;;;;;;;;;;;22.50;99.90;;;;;;4591421;19;19919;-25
2022/08/27 01:05:33;;;;;;;;;;;22.50;99.90;;;;;;4593157;19;19924;-28
2022/08/27 01:07:05;;;;;;;;;;;22.50;99.90;;;;;;4593544;19;19926;-24
2022/08/27 01:08:38;;;;;;;;;;;22.50;99.90;;;;;;4593671;19;19922;-26
2022/08/27 01:10:10;;;;;;;;;;;22.50;99.90;;;;;;4592115;19;19924;-25
2022/08/27 01:11:43;;;;;;;;;;;22.40;99.90;;;;;;4593083;19;19918;-26
2022/08/27 01:13:15;;;;;;;;;;;22.40;99.90;;;;;;4593540;19;19914;-25
2022/08/27 01:14:46;;;;;;;;;;;22.40;99.90;;;;;;4593986;19;19914;-26
2022/08/27 01:16:19;;;;;;;;;;;22.40;99.90;;;;;;4593797;19;19922;-26
2022/08/27 01:17:51;;;;;;;;;;;22.40;99.90;;;;;;4592574;19;20384;-26
2022/08/27 01:19:31;;;;;;;;;;;22.40;99.90;;;;;;4591432;19;20325;-25
2022/08/27 01:21:11;;;;;;;;;;;22.40;99.90;;;;;;4592501;19;19922;-31
2022/08/27 01:22:55;;;;;;;;;;;22.40;99.90;;;;;;4593632;19;19970;-26
2022/08/27 01:24:27;;;;;;;;;;;22.40;99.90;;;;;;4593891;19;19945;-28
2022/08/27 01:25:58;;;;;;;;;;;22.40;99.90;;;;;;4593706;19;19922;-26
2022/08/27 01:27:30;;;;;;;;;;;22.40;99.90;;;;;;4593343;19;19974;-27
2022/08/27 01:29:02;;;;;;;;;;;22.30;99.90;;;;;;4593561;19;20259;-27
2022/08/27 01:30:35;;;;;;;;;;;22.30;99.90;;;;;;4591748;19;19993;-25
2022/08/27 01:32:08;;;;;;;;;;;22.30;99.90;;;;;;4591787;19;20262;-25
2022/08/27 01:33:40;;;;;;;;;;;22.30;99.90;;;;;;4593374;19;20363;-27
2022/08/27 01:35:12;;;;;;;;;;;22.30;99.90;;;;;;4593527;19;19911;-24
2022/08/27 01:36:45;;;;;;;;;;;22.30;99.90;;;;;;4592996;19;20005;-26
2022/08/27 01:38:17;;;;;;;;;;;22.20;99.90;;;;;;4592481;19;19925;-27
2022/08/27 01:39:48;;;;;;;;;;;22.20;99.90;;;;;;4593367;19;19947;-25
2022/08/27 01:41:20;;;;;;;;;;;22.20;99.90;;;;;;4592367;19;19919;-27
2022/08/27 01:42:54;;;;;;;;;;;22.20;99.90;;;;;;4592099;19;20343;-25
2022/08/27 01:44:26;;;;;;;;;;;22.20;99.90;;;;;;4593337;19;19942;-25
2022/08/27 01:45:57;;;;;;;;;;;22.20;99.90;;;;;;4591732;19;19922;-26
2022/08/27 01:47:29;;;;;;;;;;;22.20;99.90;;;;;;4592346;19;19915;-27
2022/08/27 01:49:01;;;;;;;;;;;22.20;99.90;;;;;;4592557;19;20344;-25
2022/08/27 01:50:34;;;;;;;;;;;22.20;99.90;;;;;;4593224;19;19929;-29
2022/08/27 01:52:06;;;;;;;;;;;22.20;99.90;;;;;;4593110;19;19974;-25
2022/08/27 01:53:37;;;;;;;;;;;22.20;99.90;;;;;;4593194;19;19919;-25
2022/08/27 01:55:10;;;;;;;;;;;22.20;99.90;;;;;;4593158;19;20301;-25
2022/08/27 01:56:42;;;;;;;;;;;22.10;99.90;;;;;;4589647;19;19919;-25
2022/08/27 01:58:14;;;;;;;;;;;22.10;99.90;;;;;;4590477;19;19935;-28
2022/08/27 01:59:45;;;;;;;;;;;22.10;99.90;;;;;;4591444;19;19978;-25
2022/08/27 02:01:17;;;;;;;;;;;22.10;99.90;;;;;;4590191;19;19926;-27
2022/08/27 02:02:48;;;;;;;;;;;22.10;99.90;;;;;;4590392;19;20261;-27
2022/08/27 02:04:20;;;;;;;;;;;22.10;99.90;;;;;;4590886;19;19924;-29
2022/08/27 02:05:51;;;;;;;;;;;22.10;99.90;;;;;;4590376;19;19914;-25
2022/08/27 02:07:23;;;;;;;;;;;22.10;99.90;;;;;;4590529;19;19923;-28
2022/08/27 02:08:55;;;;;;;;;;;22.10;99.90;;;;;;4590514;19;19918;-24
2022/08/27 02:10:31;;;;;;;;;;;22.10;99.90;;;;;;4590827;19;19919;-25
2022/08/27 02:12:02;;;;;;;;;;;22.10;99.90;;;;;;4587984;19;19917;-30
2022/08/27 02:13:34;;;;;;;;;;;22.00;99.90;;;;;;4590525;19;20333;-25
2022/08/27 02:15:06;;;;;;;;;;;22.00;99.90;;;;;;4590319;19;20343;-25
2022/08/27 02:16:38;;;;;;;;;;;22.00;99.90;;;;;;4590020;19;19922;-27
2022/08/27 02:18:09;;;;;;;;;;;22.00;99.90;;;;;;4589975;19;19923;-25
2022/08/27 02:19:41;;;;;;;;;;;22.00;99.90;;;;;;4590065;19;19915;-24
2022/08/27 02:21:14;;;;;;;;;;;22.00;99.90;;;;;;4589425;19;19921;-30
2022/08/27 02:22:45;;;;;;;;;;;22.00;99.90;;;;;;4590915;19;19939;-25
2022/08/27 02:24:16;;;;;;;;;;;22.00;99.90;;;;;;4590111;19;19920;-28
2022/08/27 02:25:48;;;;;;;;;;;22.00;99.90;;;;;;4590407;19;19918;-24
2022/08/27 02:27:20;;;;;;;;;;;22.00;99.90;;;;;;4589086;19;20364;-25
2022/08/27 02:28:51;;;;;;;;;;;22.00;99.90;;;;;;4590826;19;20013;-25
2022/08/27 02:30:23;;;;;;;;;;;22.00;99.90;;;;;;4589774;19;19938;-26
2022/08/27 02:31:55;;;;;;;;;;;22.00;99.90;;;;;;4590131;19;19929;-24
2022/08/27 02:33:26;;;;;;;;;;;22.00;99.90;;;;;;4590116;19;19915;-26
2022/08/27 02:34:58;;;;;;;;;;;22.00;99.90;;;;;;4589783;19;19915;-28
2022/08/27 02:36:29;;;;;;;;;;;22.00;99.90;;;;;;4589267;19;19922;-24
2022/08/27 02:38:01;;;;;;;;;;;22.00;99.90;;;;;;4589873;19;19929;-28
2022/08/27 02:39:33;;;;;;;;;;;22.00;99.90;;;;;;4590269;19;19998;-24
2022/08/27 02:41:05;;;;;;;;;;;22.00;99.90;;;;;;4589028;19;20584;-27
2022/08/27 02:42:36;;;;;;;;;;;22.00;99.90;;;;;;4589743;19;19919;-28
2022/08/27 02:44:10;;;;;;;;;;;22.00;99.90;;;;;;4590312;19;19948;-27
2022/08/27 02:45:41;;;;;;;;;;;22.00;99.90;;;;;;4592251;19;20351;-27
2022/08/27 02:47:13;;;;;;;;;;;22.00;99.90;;;;;;4590515;19;19919;-27
2022/08/27 02:48:44;;;;;;;;;;;22.00;99.90;;;;;;4590776;19;20018;-27
2022/08/27 02:50:16;;;;;;;;;;;22.00;99.90;;;;;;4591621;19;20293;-26
2022/08/27 02:51:52;;;;;;;;;;;22.00;99.90;;;;;;4590152;19;20329;-25
2022/08/27 02:53:23;;;;;;;;;;;22.00;99.90;;;;;;4589195;19;19915;-25
2022/08/27 02:54:55;;;;;;;;;;;22.00;99.90;;;;;;4589396;19;19994;-26
2022/08/27 02:56:27;;;;;;;;;;;21.90;99.90;;;;;;4588704;19;19925;-27
2022/08/27 02:57:58;;;;;;;;;;;21.90;99.90;;;;;;4589289;19;19939;-28
2022/08/27 02:59:29;;;;;;;;;;;21.90;99.90;;;;;;4589239;19;20007;-27
2022/08/27 03:01:01;;;;;;;;;;;21.90;99.90;;;;;;4589804;19;19982;-26
2022/08/27 03:02:33;;;;;;;;;;;21.90;99.90;;;;;;4589268;19;19918;-29
2022/08/27 03:04:04;;;;;;;;;;;21.90;99.90;;;;;;4588805;19;19907;-25
2022/08/27 03:05:36;;;;;;;;;;;21.90;99.90;;;;;;4589533;19;20280;-27
2022/08/27 03:07:07;;;;;;;;;;;21.90;99.90;;;;;;4589571;19;19915;-23
2022/08/27 03:08:39;;;;;;;;;;;21.90;99.90;;;;;;4589725;19;20332;-25
2022/08/27 03:10:11;;;;;;;;;;;21.90;99.90;;;;;;4589407;19;19933;-28
2022/08/27 03:11:42;;;;;;;;;;;21.90;99.90;;;;;;4589252;19;20339;-25
2022/08/27 03:13:13;;;;;;;;;;;21.90;99.90;;;;;;4589558;19;19932;-29
2022/08/27 03:14:45;;;;;;;;;;;21.90;99.90;;;;;;4589933;19;19918;-26
2022/08/27 03:16:16;;;;;;;;;;;21.90;99.90;;;;;;4589210;19;20357;-24
2022/08/27 03:19:37;;;;;;;;;;;21.90;99.90;;;;;;4589143;19;19918;-25
2022/08/27 03:21:10;;;;;;;;;;;21.90;99.90;;;;;;4589412;19;20034;-26
2022/08/27 03:22:41;;;;;;;;;;;21.90;99.90;;;;;;4588379;19;19958;-25
2022/08/27 03:24:13;;;;;;;;;;;21.90;99.90;;;;;;4589245;19;19925;-24
2022/08/27 03:25:54;;;;;;;;;;;21.90;99.90;;;;;;4589219;19;19939;-24
2022/08/27 03:27:26;;;;;;;;;;;21.80;99.90;;;;;;4589714;19;19918;-25
2022/08/27 03:28:58;;;;;;;;;;;21.90;99.90;;;;;;4589099;19;19922;-23
2022/08/27 03:30:29;;;;;;;;;;;21.80;99.90;;;;;;4588945;19;19922;-25
2022/08/27 03:32:00;;;;;;;;;;;21.80;99.90;;;;;;4590514;19;19922;-25
2022/08/27 03:33:34;;;;;;;;;;;21.80;99.90;;;;;;4591649;19;19937;-25
2022/08/27 03:35:05;;;;;;;;;;;21.80;99.90;;;;;;4590979;19;19911;-27
2022/08/27 03:36:37;;;;;;;;;;;21.80;99.90;;;;;;4590753;19;20284;-28
2022/08/27 03:38:08;;;;;;;;;;;21.90;99.90;;;;;;4591020;19;20321;-28
2022/08/27 03:39:40;;;;;;;;;;;21.80;99.90;;;;;;4591254;19;19915;-27
2022/08/27 03:41:12;;;;;;;;;;;21.80;99.90;;;;;;4590369;19;19923;-25
2022/08/27 03:42:44;;;;;;;;;;;21.80;99.90;;;;;;4591117;19;20252;-27
2022/08/27 03:44:15;;;;;;;;;;;21.80;99.90;;;;;;4591107;19;19915;-29
2022/08/27 03:45:47;;;;;;;;;;;21.80;99.90;;;;;;4590984;19;19925;-26
2022/08/27 03:47:19;;;;;;;;;;;21.80;99.90;;;;;;4590687;19;19915;-25
2022/08/27 03:48:50;;;;;;;;;;;21.80;99.90;;;;;;4589578;19;20253;-31
2022/08/27 03:50:21;;;;;;;;;;;21.80;99.90;;;;;;4589685;19;20273;-27
2022/08/27 03:51:53;;;;;;;;;;;21.80;99.90;;;;;;4590371;19;20392;-27
2022/08/27 03:53:24;;;;;;;;;;;21.90;99.90;;;;;;4590693;19;19918;-26
2022/08/27 03:54:57;;;;;;;;;;;21.80;99.90;;;;;;4588312;19;19986;-26
2022/08/27 03:56:28;;;;;;;;;;;21.80;99.90;;;;;;4588501;19;19923;-28
2022/08/27 03:57:59;;;;;;;;;;;21.80;99.90;;;;;;4588553;19;19955;-24
2022/08/27 03:59:31;;;;;;;;;;;21.80;99.90;;;;;;4588612;19;19919;-23
2022/08/27 04:01:02;;;;;;;;;;;21.80;99.90;;;;;;4588656;19;19911;-27
2022/08/27 04:02:33;;;;;;;;;;;21.80;99.90;;;;;;4588995;19;19921;-29
2022/08/27 04:04:05;;;;;;;;;;;21.80;99.90;;;;;;4588344;19;19914;-28
2022/08/27 04:05:37;;;;;;;;;;;21.80;99.90;;;;;;4588197;19;20264;-27
2022/08/27 04:07:09;;;;;;;;;;;21.80;99.90;;;;;;4588734;19;19918;-27
2022/08/27 04:08:40;;;;;;;;;;;21.80;99.90;;;;;;4588635;19;19940;-26
2022/08/27 04:10:12;;;;;;;;;;;21.80;99.90;;;;;;4588135;19;19933;-26
2022/08/27 04:11:43;;;;;;;;;;;21.80;99.90;;;;;;4588394;19;19930;-29
2022/08/27 04:13:16;;;;;;;;;;;21.80;99.90;;;;;;4588766;19;19921;-24
2022/08/27 04:14:47;;;;;;;;;;;21.80;99.90;;;;;;4588039;19;19978;-24
2022/08/27 04:16:19;;;;;;;;;;;21.80;99.90;;;;;;4587857;19;20414;-26
2022/08/27 04:17:50;;;;;;;;;;;21.80;99.90;;;;;;4588012;19;20260;-27
2022/08/27 04:19:22;;;;;;;;;;;21.80;99.90;;;;;;4588607;19;19919;-25
2022/08/27 04:20:54;;;;;;;;;;;21.80;99.90;;;;;;4588053;19;20324;-25
2022/08/27 04:22:26;;;;;;;;;;;21.80;99.90;;;;;;4588100;19;20355;-27
2022/08/27 04:23:58;;;;;;;;;;;21.80;99.90;;;;;;4587554;19;19921;-25
2022/08/27 04:25:30;;;;;;;;;;;21.80;99.90;;;;;;4588688;19;19918;-24
2022/08/27 04:27:02;;;;;;;;;;;21.80;99.90;;;;;;4589699;19;19974;-25
2022/08/27 04:28:34;;;;;;;;;;;21.80;99.90;;;;;;4590052;19;19935;-27
2022/08/27 04:30:08;;;;;;;;;;;21.80;99.90;;;;;;4590017;19;19918;-24
2022/08/27 04:31:39;;;;;;;;;;;21.80;99.90;;;;;;4589965;19;19919;-25
2022/08/27 04:33:12;;;;;;;;;;;21.80;99.90;;;;;;4590061;19;19918;-24
2022/08/27 04:34:44;;;;;;;;;;;21.80;99.90;;;;;;4590409;19;19935;-25
2022/08/27 04:36:16;;;;;;;;;;;21.80;99.90;;;;;;4594755;19;20362;-27
2022/08/27 04:37:48;;;;;;;;;;;21.80;99.90;;;;;;4594549;19;20325;-35
2022/08/27 04:39:19;;;;;;;;;;;21.80;99.90;;;;;;4592974;19;19918;-27
2022/08/27 04:42:44;;;;;;;;;;;21.80;99.90;;;;;;4594504;19;19922;-28
2022/08/27 04:44:15;;;;;;;;;;;21.80;99.90;;;;;;4595121;19;19942;-29
2022/08/27 04:45:47;;;;;;;;;;;21.80;99.90;;;;;;4593563;19;20249;-28
2022/08/27 04:47:19;;;;;;;;;;;21.80;99.90;;;;;;4593597;19;19986;-23
2022/08/27 04:48:51;;;;;;;;;;;21.80;99.90;;;;;;4593996;19;19917;-26
2022/08/27 04:50:22;;;;;;;;;;;21.80;99.90;;;;;;4592297;19;19915;-28
2022/08/27 04:51:53;;;;;;;;;;;21.80;99.90;;;;;;4592077;19;20277;-23
2022/08/27 04:53:25;;;;;;;;;;;21.80;99.90;;;;;;4593493;19;20383;-28
2022/08/27 04:54:56;;;;;;;;;;;21.80;99.90;;;;;;4594547;19;19922;-28
2022/08/27 04:56:27;;;;;;;;;;;21.80;99.90;;;;;;4593781;19;19970;-24
2022/08/27 04:57:59;;;;;;;;;;;21.80;99.90;;;;;;4594106;19;19992;-27
2022/08/27 04:59:31;;;;;;;;;;;21.80;99.90;;;;;;4594121;19;19933;-26
2022/08/27 05:01:03;;;;;;;;;;;21.80;99.90;;;;;;4594353;19;19941;-25
2022/08/27 05:02:34;;;;;;;;;;;21.80;99.90;;;;;;4591888;19;19911;-26
2022/08/27 05:04:06;;;;;;;;;;;21.80;99.90;;;;;;4593475;19;19926;-25
2022/08/27 05:05:38;;;;;;;;;;;21.90;99.90;;;;;;4594012;19;19918;-25
2022/08/27 05:07:09;;;;;;;;;;;21.90;99.90;;;;;;4594690;19;19918;-24
2022/08/27 05:08:41;;;;;;;;;;;21.90;99.90;;;;;;4593072;19;20284;-24
2022/08/27 05:10:12;;;;;;;;;;;21.90;99.90;;;;;;4592759;19;20006;-28
2022/08/27 05:11:44;;;;;;;;;;;21.90;99.90;;;;;;4593540;19;19914;-27
2022/08/27 05:13:17;;;;;;;;;;;21.90;99.90;;;;;;4593790;19;19926;-27
2022/08/27 05:14:48;;;;;;;;;;;22.00;99.90;;;;;;4593660;19;19914;-23
2022/08/27 05:16:20;;;;;;;;;;;22.00;99.90;;;;;;4593405;19;19923;-25
2022/08/27 05:17:53;;;;;;;;;;;22.00;99.90;;;;;;4593985;19;19974;-25
2022/08/27 05:19:24;;;;;;;;;;;22.00;99.90;;;;;;4593581;19;19974;-28
2022/08/27 05:20:57;;;;;;;;;;;22.00;99.90;;;;;;4593696;19;19915;-24
2022/08/27 05:22:27;;;;;;;;;;;22.00;99.90;;;;;;4592320;19;20013;-25
2022/08/27 05:23:59;;;;;;;;;;;22.10;99.90;;;;;;4593690;19;19918;-24
2022/08/27 05:25:30;;;;;;;;;;;22.40;99.90;;;;;;4592510;19;19914;-24
2022/08/27 05:27:01;;;;;;;;;;;22.50;99.90;;;;;;4592202;19;19982;-24
2022/08/27 05:28:32;;;;;;;;;;;22.60;99.90;;;;;;4593234;19;20240;-26
2022/08/27 05:30:04;;;;;;;;;;;22.70;99.90;;;;;;4593811;19;19923;-26
2022/08/27 05:31:35;;;;;;;;;;;22.80;99.90;;;;;;4592299;19;19926;-25
2022/08/27 05:33:06;;;;;;;;;;;22.80;99.90;;;;;;4592030;19;19915;-24
2022/08/27 05:34:37;;;;;;;;;;;22.80;99.90;;;;;;4593580;19;19911;-25
2022/08/27 05:36:13;;;;;;;;;;;22.90;99.90;;;;;;4593264;19;19936;-27
2022/08/27 05:37:45;;;;;;;;;;;23.00;99.90;;;;;;4590400;19;19930;-26
2022/08/27 05:39:16;;;;;;;;;;;23.00;99.90;;;;;;4591556;19;19974;-27
2022/08/27 05:40:47;;;;;;;;;;;23.00;99.90;;;;;;4593556;19;19922;-24
2022/08/27 05:42:18;;;;;;;;;;;23.00;99.90;;;;;;4592889;19;19937;-25
2022/08/27 05:43:49;;;;;;;;;;;23.00;99.90;;;;;;4593348;19;19925;-26
2022/08/27 05:45:20;;;;;;;;;;;23.10;99.90;;;;;;4594043;19;19918;-25
2022/08/27 05:46:51;;;;;;;;;;;23.10;99.90;;;;;;4592479;19;19925;-25
2022/08/27 05:48:22;;;;;;;;;;;23.10;99.90;;;;;;4592691;19;19923;-26
2022/08/27 05:49:53;;;;;;;;;;;23.10;99.90;;;;;;4592674;19;20260;-24
2022/08/27 05:51:32;;;;;;;;;;;23.10;99.90;;;;;;4594967;19;19929;-24
2022/08/27 05:53:03;;;;;;;;;;;23.10;99.90;;;;;;4595918;19;19915;-26
2022/08/27 05:54:34;;;;;;;;;;;23.10;99.90;;;;;;4592834;19;19921;-25
2022/08/27 05:56:34;;;;;;;;;;;23.10;99.90;;;;;;4592654;19;19911;-25
2022/08/27 05:58:05;;;;;;;;;;;23.20;99.90;;;;;;4592196;19;19928;-27
2022/08/27 06:01:26;;;;;;;;;;;23.20;99.90;;;;;;4592890;19;19930;-25
2022/08/27 06:02:57;;;;;;;;;;;23.20;99.90;;;;;;4594400;19;20058;-28
2022/08/27 06:04:28;;;;;;;;;;;23.20;99.90;;;;;;4592982;19;19929;-25
2022/08/27 06:06:03;;;;;;;;;;;23.20;99.90;;;;;;4592890;19;19927;-25
2022/08/27 06:07:34;;;;;;;;;;;23.20;99.90;;;;;;4595554;19;19915;-26
2022/08/27 06:09:05;;;;;;;;;;;23.20;99.90;;;;;;4592537;19;20329;-25
2022/08/27 06:10:38;;;;;;;;;;;23.20;99.90;;;;;;4592865;19;19922;-25
2022/08/27 06:12:10;;;;;;;;;;;23.20;99.90;;;;;;4591583;19;20395;-26
2022/08/27 06:13:41;;;;;;;;;;;23.30;99.90;;;;;;4592539;19;20316;-27
2022/08/27 06:15:12;;;;;;;;;;;23.30;99.90;;;;;;4592331;19;19931;-25
2022/08/27 06:16:43;;;;;;;;;;;23.30;99.90;;;;;;4592168;19;20340;-25
2022/08/27 06:18:14;;;;;;;;;;;23.30;99.90;;;;;;4594651;19;19919;-24
2022/08/27 06:19:45;;;;;;;;;;;23.30;99.90;;;;;;4592085;19;20329;-26
2022/08/27 06:21:16;;;;;;;;;;;23.40;99.90;;;;;;4593248;19;19999;-25
2022/08/27 06:22:47;;;;;;;;;;;23.40;99.90;;;;;;4594890;19;19925;-24
2022/08/27 06:24:19;;;;;;;;;;;23.40;99.90;;;;;;4594160;19;19933;-30
2022/08/27 06:25:50;;;;;;;;;;;23.40;99.90;;;;;;4591426;19;19907;-27
2022/08/27 06:27:21;;;;;;;;;;;23.40;99.90;;;;;;4594217;19;19934;-25
2022/08/27 06:28:52;;;;;;;;;;;23.40;99.90;;;;;;4594202;19;19911;-25
2022/08/27 06:30:24;;;;;;;;;;;23.40;99.90;;;;;;4593391;19;20461;-24
2022/08/27 06:31:55;;;;;;;;;;;23.40;99.90;;;;;;4592032;19;19982;-25
2022/08/27 06:33:26;;;;;;;;;;;23.40;99.90;;;;;;4592210;19;20322;-24
2022/08/27 06:34:58;;;;;;;;;;;23.40;99.90;;;;;;4592754;19;19926;-26
2022/08/27 06:36:30;;;;;;;;;;;23.40;99.90;;;;;;4591716;19;20314;-24
2022/08/27 06:38:01;;;;;;;;;;;23.40;99.90;;;;;;4591882;19;19919;-27
2022/08/27 06:39:31;;;;;;;;;;;23.40;99.90;;;;;;4590256;19;19949;-27
2022/08/27 06:41:05;;;;;;;;;;;23.50;99.90;;;;;;4592476;19;19947;-25
2022/08/27 06:42:37;;;;;;;;;;;23.50;99.90;;;;;;4591657;19;20001;-27
2022/08/27 06:44:08;;;;;;;;;;;23.50;99.90;;;;;;4592332;19;19918;-28
2022/08/27 06:45:39;;;;;;;;;;;23.50;99.90;;;;;;4592062;19;20321;-28
2022/08/27 06:47:10;;;;;;;;;;;23.50;99.90;;;;;;4592248;19;19922;-27
2022/08/27 06:48:43;;;;;;;;;;;23.60;99.90;;;;;;4591899;19;19923;-28
2022/08/27 06:50:14;;;;;;;;;;;23.70;99.90;;;;;;4591846;19;20244;-24
2022/08/27 06:51:45;;;;;;;;;;;23.70;99.90;;;;;;4589769;19;19915;-23
2022/08/27 06:53:16;;;;;;;;;;;23.80;99.90;;;;;;4591303;19;19926;-24
2022/08/27 06:55:02;;;;;;;;;;;23.80;99.90;;;;;;4592340;19;19915;-25
2022/08/27 06:56:34;;;;;;;;;;;23.90;99.90;;;;;;4586921;19;19921;-27
2022/08/27 06:58:06;;;;;;;;;;;23.90;99.90;;;;;;4589939;19;20297;-24
2022/08/27 06:59:38;;;;;;;;;;;24.00;99.90;;;;;;4591536;19;20286;-24
2022/08/27 07:01:12;;;;;;;;;;;24.10;99.90;;;;;;4592431;19;19915;-28
2022/08/27 07:02:43;;;;;;;;;;;24.10;99.90;;;;;;4591034;19;19936;-26
2022/08/27 07:04:18;;;;;;;;;;;24.20;99.90;;;;;;4591965;19;20320;-25
2022/08/27 07:05:49;;;;;;;;;;;24.30;99.90;;;;;;4588674;19;20228;-24
2022/08/27 07:07:20;;;;;;;;;;;24.40;99.90;;;;;;4591847;19;19911;-24
2022/08/27 07:08:52;;;;;;;;;;;24.40;99.90;;;;;;4591408;19;19926;-24
2022/08/27 07:10:23;;;;;;;;;;;24.50;99.90;;;;;;4592492;19;19920;-25
2022/08/27 07:11:54;;;;;;;;;;;24.50;99.90;;;;;;4591265;19;19929;-24
2022/08/27 07:13:26;;;;;;;;;;;24.60;99.90;;;;;;4590791;19;20336;-24
2022/08/27 07:14:57;;;;;;;;;;;24.60;99.90;;;;;;4590013;19;20532;-29
2022/08/27 07:16:28;;;;;;;;;;;24.70;99.90;;;;;;4591306;19;19924;-25
2022/08/27 07:17:59;;;;;;;;;;;24.70;99.90;;;;;;4589958;19;19918;-27
2022/08/27 07:19:31;;;;;;;;;;;24.70;99.90;;;;;;4591442;19;20246;-30
2022/08/27 07:21:05;;;;;;;;;;;24.80;99.90;;;;;;4591498;19;19915;-25
2022/08/27 07:22:40;;;;;;;;;;;24.80;99.90;;;;;;4591781;19;19922;-25
2022/08/27 07:24:11;;;;;;;;;;;24.80;99.90;;;;;;4589243;19;20601;-25
2022/08/27 07:25:42;;;;;;;;;;;24.80;99.90;;;;;;4588819;19;19926;-24
2022/08/27 07:27:13;;;;;;;;;;;24.80;99.90;;;;;;4589959;19;19990;-26
2022/08/27 07:28:45;;;;;;;;;;;24.80;99.90;;;;;;4589050;19;20256;-27
2022/08/27 07:30:16;;;;;;;;;;;24.80;99.90;;;;;;4588579;19;19938;-26
2022/08/27 07:31:47;;;;;;;;;;;24.30;99.90;;;;;;4588524;19;19930;-25
2022/08/27 07:33:18;;;;;;;;;;;23.70;99.90;;;;;;4589317;19;20338;-25
2022/08/27 07:34:50;;;;;;;;;;;23.20;99.90;;;;;;4587312;19;19991;-25
2022/08/27 07:36:21;;;;;;;;;;;22.90;99.90;;;;;;4584620;19;19922;-26
2022/08/27 07:37:52;;;;;;;;;;;22.70;99.90;;;;;;4584873;19;20491;-26
2022/08/27 07:39:23;;;;;;;;;;;22.50;99.90;;;;;;4586223;19;19914;-27
2022/08/27 07:40:54;;;;;;;;;;;22.30;99.90;;;;;;4586531;19;19914;-26
2022/08/27 07:44:24;;;;;;;;;;;22.20;99.90;;;;;;4588395;19;20405;-24
2022/08/27 07:45:56;;;;;;;;;;;22.10;99.90;;;;;;4588216;19;19933;-23
2022/08/27 07:47:27;;;;;;;;;;;22.10;99.90;;;;;;4587119;19;19929;-25
2022/08/27 07:48:58;;;;;;;;;;;22.00;99.90;;;;;;4588125;19;19964;-26
2022/08/27 07:50:29;;;;;;;;;;;22.00;99.90;;;;;;4587766;19;20002;-25
2022/08/27 07:52:01;;;;;;;;;;;21.90;99.90;;;;;;4589293;19;19936;-24
2022/08/27 07:53:33;;;;;;;;;;;21.90;99.90;;;;;;4587842;19;19930;-25
2022/08/27 07:55:05;;;;;;;;;;;22.00;99.90;;;;;;4587927;19;19919;-24
2022/08/27 07:56:37;;;;;;;;;;;22.00;99.90;;;;;;4588110;19;19926;-28
2022/08/27 07:58:11;;;;;;;;;;;21.90;99.90;;;;;;4592421;19;20332;-27
2022/08/27 07:59:43;;;;;;;;;;;22.00;99.90;;;;;;4589617;19;19932;-27
2022/08/27 08:01:14;;;;;;;;;;;22.30;99.90;;;;;;4590480;19;20347;-24
2022/08/27 08:02:48;;;;;;;;;;;22.10;99.90;;;;;;4588953;19;19949;-24
2022/08/27 08:04:21;;;;;;;;;;;22.20;99.90;;;;;;4590843;19;19941;-24
2022/08/27 08:05:53;;;;;;;;;;;22.40;99.90;;;;;;4589184;19;19910;-24
2022/08/27 08:07:27;;;;;;;;;;;22.60;99.90;;;;;;4589350;19;19918;-24
2022/08/27 08:08:58;;;;;;;;;;;22.80;99.90;;;;;;4589847;19;19922;-25
2022/08/27 08:10:31;;;;;;;;;;;23.10;99.90;;;;;;4589213;19;19930;-28
2022/08/27 08:12:03;;;;;;;;;;;23.30;99.90;;;;;;4590296;19;19918;-28
2022/08/27 08:13:34;;;;;;;;;;;23.40;99.90;;;;;;4590478;19;19937;-25
2022/08/27 08:15:07;;;;;;;;;;;23.40;99.90;;;;;;4590618;19;20332;-27
2022/08/27 08:16:39;;;;;;;;;;;23.40;99.90;;;;;;4590279;19;19942;-28
2022/08/27 08:18:11;;;;;;;;;;;23.40;99.90;;;;;;4587841;19;20254;-25
2022/08/27 08:19:43;;;;;;;;;;;23.40;99.90;;;;;;4589259;19;19921;-26
2022/08/27 08:21:14;;;;;;;;;;;23.50;99.90;;;;;;4590694;19;19923;-28
2022/08/27 08:22:47;;;;;;;;;;;23.50;99.90;;;;;;4590073;19;19927;-25
2022/08/27 08:24:19;;;;;;;;;;;23.50;99.90;;;;;;4589154;19;19919;-28
2022/08/27 08:25:51;;;;;;;;;;;23.50;99.90;;;;;;4589967;19;19918;-26
2022/08/27 08:27:24;;;;;;;;;;;23.50;99.90;;;;;;4589353;19;20368;-25
2022/08/27 08:28:56;;;;;;;;;;;23.50;99.90;;;;;;4589825;19;19955;-25
2022/08/27 08:30:28;;;;;;;;;;;23.60;99.90;;;;;;4590322;19;20329;-25
2022/08/27 08:32:00;;;;;;;;;;;23.60;99.90;;;;;;4588888;19;20256;-24
2022/08/27 08:33:33;;;;;;;;;;;23.60;99.90;;;;;;4589760;19;19925;-25
2022/08/27 08:35:08;;;;;;;;;;;23.60;99.90;;;;;;4590120;19;19914;-28
2022/08/27 08:36:40;;;;;;;;;;;23.70;99.90;;;;;;4589705;19;19918;-25
2022/08/27 08:38:16;;;;;;;;;;;23.70;99.90;;;;;;4589287;19;19931;-25
2022/08/27 08:39:50;;;;;;;;;;;23.80;99.90;;;;;;4588917;19;19915;-27
2022/08/27 08:41:37;;;;;;;;;;;23.90;99.90;;;;;;4588695;19;19922;-27
2022/08/27 08:43:12;;;;;;;;;;;23.90;99.90;;;;;;4589782;19;19915;-23
2022/08/27 08:44:45;;;;;;;;;;;23.90;99.90;;;;;;4588851;19;19923;-25
2022/08/27 08:46:21;;;;;;;;;;;23.90;99.90;;;;;;4589672;19;19934;-26
2022/08/27 08:47:55;;;;;;;;;;;24.00;99.90;;;;;;4587824;19;19982;-26
2022/08/27 08:49:46;;;;;;;;;;;24.10;99.90;;;;;;4587724;19;19919;-26
2022/08/27 08:51:25;;;;;;;;;;;24.00;99.90;;;;;;4587505;19;19919;-24
2022/08/27 08:53:06;;;;;;;;;;;24.00;99.90;;;;;;4588009;19;19919;-25
2022/08/27 08:54:40;;;;;;;;;;;24.10;99.90;;;;;;4588116;19;19926;-27
2022/08/27 08:56:11;;;;;;;;;;;24.10;99.90;;;;;;4587578;19;19930;-29
2022/08/27 08:58:01;;;;;;;;;;;24.10;99.90;;;;;;4586424;19;19953;-28
2022/08/27 08:59:43;;;;;;;;;;;24.20;99.90;;;;;;4587598;19;19934;-26
2022/08/27 09:01:17;;;;;;;;;;;24.20;99.90;;;;;;4587252;19;19915;-26
2022/08/27 09:02:53;;;;;;;;;;;24.30;99.90;;;;;;4587571;19;19918;-29
2022/08/27 09:04:26;;;;;;;;;;;24.30;99.90;;;;;;4587337;19;19945;-29